createdAt,value
2023-04-30T01:18:26.888Z,2.13
2023-04-30T01:23:49.012Z,1.30
2023-04-30T01:28:55.616Z,1.30
2023-04-30T01:33:59.405Z,1.33
2023-04-30T01:39:19.569Z,1.83
2023-04-30T01:44:43.912Z,1.83
2023-04-30T01:49:57.078Z,1.60
2023-04-30T01:55:08.358Z,2.20
2023-04-30T02:00:15.184Z,1.80
2023-04-30T02:05:19.021Z,1.77
2023-04-30T02:10:23.982Z,1.95
2023-04-30T02:15:29.846Z,1.90
2023-04-30T02:20:33.514Z,2.05
2023-04-30T02:25:37.094Z,1.70
2023-04-30T02:30:44.933Z,1.73
2023-04-30T02:35:48.626Z,1.90
2023-04-30T02:40:52.236Z,1.95
2023-04-30T02:45:57.544Z,2.13
2023-04-30T02:51:01.171Z,2.33
2023-04-30T02:56:05.115Z,2.08
2023-04-30T03:01:11.285Z,1.83
2023-04-30T03:06:14.989Z,1.90
2023-04-30T03:11:18.605Z,2.35
2023-04-30T03:16:23.945Z,2.10
2023-04-30T03:21:27.630Z,2.20
2023-04-30T03:26:31.245Z,2.65
2023-04-30T03:31:36.586Z,2.42
2023-04-30T03:36:40.233Z,2.20
2023-04-30T03:41:43.854Z,2.30
2023-04-30T03:46:49.134Z,2.35
2023-04-30T03:51:52.805Z,2.22
2023-04-30T03:56:56.466Z,2.10
2023-04-30T04:02:01.887Z,2.30
2023-04-30T04:07:05.552Z,2.20
2023-04-30T04:12:09.194Z,2.33
2023-04-30T04:17:14.515Z,2.20
2023-04-30T04:22:18.170Z,2.78
2023-04-30T04:27:21.786Z,2.60
2023-04-30T04:32:27.094Z,2.50
2023-04-30T04:37:31.466Z,2.83
2023-04-30T04:42:35.057Z,2.50
2023-04-30T04:47:40.452Z,2.17
2023-04-30T04:52:44.148Z,2.45
2023-04-30T04:57:47.769Z,2.65
2023-04-30T05:02:53.216Z,2.45
2023-04-30T05:07:56.885Z,2.60
2023-04-30T05:13:00.508Z,2.47
2023-04-30T05:18:05.991Z,2.40
2023-04-30T05:23:09.729Z,2.50
2023-04-30T05:28:13.537Z,2.42
2023-04-30T05:33:18.880Z,2.70
2023-04-30T05:38:22.471Z,2.45
2023-04-30T05:43:26.078Z,2.40
2023-04-30T05:48:32.147Z,2.60
2023-04-30T05:53:35.788Z,2.15
2023-04-30T05:58:40.251Z,2.63
2023-04-30T06:03:45.520Z,2.50
2023-04-30T06:08:49.249Z,2.57
2023-04-30T06:13:52.965Z,2.67
2023-04-30T06:18:58.223Z,2.70
2023-04-30T06:24:01.855Z,2.57
2023-04-30T06:29:05.549Z,2.50
2023-04-30T06:34:10.830Z,2.65
2023-04-30T06:39:16.498Z,2.50
2023-04-30T06:44:20.877Z,2.38
2023-04-30T06:49:26.201Z,2.40
2023-04-30T06:54:29.881Z,2.20
2023-04-30T06:59:33.517Z,2.58
2023-04-30T07:04:38.775Z,2.78
2023-04-30T07:09:42.383Z,2.43
2023-04-30T07:14:46.018Z,2.45
2023-04-30T07:19:51.272Z,2.55
2023-04-30T07:24:54.896Z,2.60
2023-04-30T07:29:58.497Z,2.75
2023-04-30T07:35:03.805Z,2.50
2023-04-30T07:40:08.684Z,2.60
2023-04-30T07:45:12.601Z,2.45
2023-04-30T07:50:17.952Z,2.85
2023-04-30T07:55:21.712Z,2.60
2023-04-30T08:00:25.367Z,2.78
2023-04-30T08:05:30.625Z,2.45
2023-04-30T08:10:35.034Z,3.10
2023-04-30T08:15:41.588Z,2.65
2023-04-30T08:20:46.968Z,2.90
2023-04-30T08:25:50.603Z,2.57
2023-04-30T08:30:54.185Z,3.20
2023-04-30T08:35:59.464Z,2.67
2023-04-30T08:41:10.192Z,2.60
2023-04-30T08:46:14.087Z,2.60
2023-04-30T08:51:19.385Z,2.95
2023-04-30T08:56:25.313Z,2.60
2023-04-30T09:06:34.473Z,2.58
2023-04-30T09:11:38.138Z,2.93
2023-04-30T09:16:48.883Z,2.75
2023-04-30T09:21:54.516Z,2.75
2023-04-30T09:26:58.168Z,2.80
2023-04-30T09:32:09.878Z,2.70
2023-04-30T09:37:15.292Z,2.67
2023-04-30T09:42:19.430Z,2.67
2023-04-30T09:47:23.086Z,2.63
2023-04-30T09:52:28.350Z,2.60
2023-04-30T09:57:32.443Z,3.00
2023-04-30T10:02:37.144Z,2.67
2023-04-30T10:07:43.020Z,2.60
2023-04-30T10:12:51.663Z,2.55
2023-04-30T10:18:01.594Z,2.58
2023-04-30T10:23:07.276Z,2.40
2023-04-30T10:28:12.364Z,2.70
2023-04-30T10:33:24.041Z,2.72
2023-04-30T10:38:31.628Z,2.83
2023-04-30T10:43:37.438Z,2.70
2023-04-30T10:48:41.128Z,3.00
2023-04-30T10:53:50.955Z,2.90
2023-04-30T10:58:54.556Z,2.88
2023-04-30T11:04:08.587Z,2.78
2023-04-30T11:09:14.890Z,2.28
2023-04-30T11:14:22.119Z,2.65
2023-04-30T11:19:25.786Z,2.88
2023-04-30T11:25:04.935Z,2.70
2023-04-30T11:30:14.184Z,2.80
2023-04-30T11:35:19.660Z,2.60
2023-04-30T11:40:24.970Z,2.80
2023-04-30T11:45:28.635Z,2.80
2023-04-30T11:50:35.014Z,2.65
2023-04-30T11:55:41.929Z,2.67
2023-04-30T12:00:46.334Z,3.03
2023-04-30T12:05:50.669Z,2.38
2023-04-30T12:10:55.976Z,2.65
2023-04-30T12:16:00.264Z,2.70
2023-04-30T12:21:04.111Z,2.80
2023-04-30T12:26:09.443Z,2.83
2023-04-30T12:31:13.095Z,2.57
2023-04-30T12:36:16.969Z,2.53
2023-04-30T12:41:22.263Z,2.40
2023-04-30T12:46:28.050Z,2.90
2023-04-30T12:51:33.809Z,2.55
2023-04-30T12:56:39.103Z,2.57
2023-04-30T13:01:46.360Z,1.70
2023-04-30T13:06:50.063Z,1.80
2023-04-30T13:11:55.395Z,1.30
2023-04-30T13:16:59.211Z,1.70
2023-04-30T13:22:02.842Z,1.55
2023-04-30T13:27:09.095Z,1.52
2023-04-30T13:37:15.564Z,1.20
2023-04-30T13:42:20.913Z,1.35
2023-04-30T13:47:24.618Z,1.30
2023-04-30T13:52:28.265Z,1.88
2023-04-30T13:57:33.537Z,1.30
2023-04-30T14:02:37.308Z,1.60
2023-04-30T14:07:40.993Z,1.10
2023-04-30T14:12:46.212Z,1.00
2023-04-30T14:17:49.916Z,0.93
2023-04-30T14:22:53.856Z,0.95
2023-04-30T14:27:59.178Z,0.70
2023-04-30T14:33:02.849Z,1.00
2023-04-30T14:38:09.371Z,0.80
2023-04-30T14:43:14.639Z,0.85
2023-04-30T14:48:20.587Z,1.07
2023-04-30T14:58:29.858Z,0.80
2023-04-30T15:03:33.615Z,1.17
2023-04-30T15:08:37.333Z,1.15
2023-04-30T15:13:42.814Z,1.00
2023-04-30T15:18:46.587Z,1.10
2023-04-30T15:23:50.254Z,1.35
2023-04-30T15:28:56.493Z,1.48
2023-04-30T15:34:00.134Z,1.20
2023-04-30T15:39:03.781Z,0.80
2023-04-30T15:44:11.732Z,0.95
2023-04-30T15:49:15.475Z,1.00
2023-04-30T15:54:19.142Z,0.90
2023-04-30T15:59:24.382Z,0.93
2023-04-30T16:04:28.003Z,1.10
2023-04-30T16:09:31.853Z,0.82
2023-04-30T16:14:38.106Z,0.68
2023-04-30T16:19:41.726Z,0.50
2023-04-30T16:24:45.392Z,0.77
2023-04-30T16:29:51.727Z,0.30
2023-04-30T16:34:55.407Z,0.40
2023-04-30T16:39:59.062Z,0.32
2023-04-30T16:45:04.699Z,0.45
2023-04-30T16:50:09.895Z,0.73
2023-04-30T16:55:13.511Z,0.60
2023-04-30T17:00:18.996Z,0.40
2023-04-30T17:05:22.855Z,0.40
2023-04-30T17:10:26.500Z,0.45
2023-04-30T17:15:31.869Z,0.40
2023-04-30T17:20:35.598Z,0.60
2023-04-30T17:25:39.578Z,0.57
2023-04-30T17:30:45.173Z,0.57
2023-04-30T17:35:48.876Z,0.40
2023-04-30T17:40:53.629Z,0.88
2023-04-30T17:45:58.951Z,0.37
2023-04-30T17:51:02.635Z,0.30
2023-04-30T17:56:06.639Z,0.50
2023-04-30T18:01:12.134Z,0.68
2023-04-30T18:06:15.887Z,0.80
2023-04-30T18:11:19.526Z,0.57
2023-04-30T18:16:25.581Z,0.68
2023-04-30T18:21:29.220Z,0.98
2023-04-30T18:26:32.852Z,0.95
2023-04-30T18:31:38.314Z,0.90
2023-04-30T18:36:41.967Z,1.08
2023-04-30T18:41:45.755Z,1.00
2023-04-30T18:46:52.058Z,1.00
2023-04-30T18:51:55.729Z,1.42
2023-04-30T18:56:59.374Z,1.30
2023-04-30T19:02:04.740Z,1.38
2023-04-30T19:07:08.369Z,1.30
2023-04-30T19:12:12.108Z,1.80
2023-04-30T19:17:19.473Z,1.80
2023-04-30T19:22:24.462Z,1.55
2023-04-30T19:27:27.319Z,1.50
2023-04-30T19:32:33.629Z,2.00
2023-04-30T19:37:37.404Z,1.40
2023-04-30T19:42:41.049Z,1.75
2023-04-30T19:47:46.324Z,2.20
